Terminal Aerodrome Forecast
Issued by NWS Charleston, WV

Current Version | Previous Version | Graphics & Text | Print | Product List | Glossary On
Versions: 1 2 3 4 5 6 7 8 9 10 11 12 13 14 15 16 17 18 19 20 21 22 23 24 25
000
FTUS41 KRLX 271100
TAFBKW
TAF
KBKW 271135Z 2712/2812 VRB03KT 1SM -SHSN BR BKN003 OVC012
     FM271400 31007KT 3SM -SHSN BR SCT006 OVC012
     FM271600 31008KT 4SM BR OVC015
     FM280900 30007KT P6SM BKN015=

USA.gov is the U.S. government's official web portal to all federal, state and local government web resources and services.